createdAt,value
2019-02-16T00:00:17.697Z,10.30
2019-02-16T00:01:17.477Z,10.20
2019-02-16T00:02:17.757Z,9.80
2019-02-16T00:03:18.467Z,9.50
2019-02-16T00:04:17.419Z,10.60
2019-02-16T00:05:17.429Z,10.50
2019-02-16T00:06:17.407Z,10.40
2019-02-16T00:07:17.382Z,9.80
2019-02-16T00:08:17.392Z,9.90
2019-02-16T00:09:17.379Z,9.80
2019-02-16T00:10:18.277Z,9.80
2019-02-16T00:11:18.326Z,9.60
2019-02-16T00:12:19.302Z,10.80
2019-02-16T00:13:17.409Z,10.30
2019-02-16T00:14:17.325Z,10.40
2019-02-16T00:15:19.279Z,9.40
2019-02-16T00:16:17.291Z,12.50
2019-02-16T00:17:17.286Z,14.10
2019-02-16T00:18:17.280Z,24.40
2019-02-16T00:19:17.261Z,14.90
2019-02-16T00:20:47.180Z,17.00
2019-02-16T00:21:17.344Z,13.40
2019-02-16T00:22:17.226Z,19.40
2019-02-16T00:23:17.218Z,13.60
2019-02-16T00:24:17.204Z,14.50
2019-02-16T00:25:17.231Z,12.60
2019-02-16T00:26:17.200Z,14.20
2019-02-16T00:28:25.113Z,11.60
2019-02-16T00:29:25.117Z,12.10
2019-02-16T00:31:00.374Z,10.20
2019-02-16T00:31:25.120Z,10.20
2019-02-16T00:32:25.062Z,9.30
2019-02-16T00:33:25.031Z,10.40
2019-02-16T00:34:25.052Z,10.00
2019-02-16T00:37:36.327Z,9.70
2019-02-16T00:38:37.249Z,9.30
2019-02-16T00:39:36.276Z,9.70
2019-02-16T00:40:36.283Z,10.50
2019-02-16T00:41:36.293Z,9.90
2019-02-16T00:42:36.258Z,9.70
2019-02-16T00:43:36.249Z,10.20
2019-02-16T00:44:36.241Z,9.70
2019-02-16T00:45:36.220Z,10.00
2019-02-16T00:46:36.221Z,13.70
2019-02-16T00:47:36.196Z,11.40
2019-02-16T00:48:36.191Z,10.50
2019-02-16T00:49:59.986Z,8.80
2019-02-16T00:50:36.202Z,9.90
2019-02-16T00:51:36.156Z,9.50
2019-02-16T00:52:36.171Z,9.00
2019-02-16T00:53:39.849Z,9.10
2019-02-16T00:54:36.130Z,8.80
2019-02-16T00:55:36.117Z,9.50
2019-02-16T00:56:36.105Z,9.00
2019-02-16T00:57:36.109Z,8.70
2019-02-16T00:58:36.076Z,10.10
2019-02-16T00:59:36.068Z,9.00
2019-02-16T01:00:36.067Z,8.90
2019-02-16T01:01:36.068Z,9.60
2019-02-16T01:02:36.032Z,9.50
2019-02-16T01:03:36.030Z,8.40
2019-02-16T01:04:57.018Z,9.40
2019-02-16T01:05:36.008Z,8.60
2019-02-16T01:06:36.017Z,9.30
2019-02-16T01:07:35.982Z,9.10
2019-02-16T01:08:36.012Z,8.60
2019-02-16T01:11:00.526Z,8.80
2019-02-16T01:11:35.951Z,8.50
2019-02-16T01:12:35.922Z,8.40
2019-02-16T01:14:29.904Z,8.50
2019-02-16T01:14:47.564Z,9.40
2019-02-16T01:15:35.916Z,9.40
2019-02-16T01:16:35.885Z,8.40
2019-02-16T01:17:35.876Z,8.00
2019-02-16T01:18:35.867Z,8.80
2019-02-16T01:19:57.555Z,9.10
2019-02-16T01:20:35.845Z,8.70
2019-02-16T01:21:35.838Z,9.30
2019-02-16T01:22:35.821Z,9.20
2019-02-16T01:23:35.820Z,8.60
2019-02-16T01:25:45.195Z,7.20
2019-02-16T01:26:45.163Z,8.50
2019-02-16T01:27:45.141Z,9.30
2019-02-16T01:28:45.141Z,9.50
2019-02-16T01:30:06.122Z,9.00
2019-02-16T01:30:45.118Z,8.50
2019-02-16T01:31:45.134Z,8.90
2019-02-16T01:33:10.335Z,8.40
2019-02-16T01:33:46.078Z,9.10
2019-02-16T01:34:45.087Z,8.70
2019-02-16T01:35:46.257Z,8.70
2019-02-16T01:36:45.071Z,8.80
2019-02-16T01:37:45.035Z,8.20
2019-02-16T01:38:45.021Z,9.50
2019-02-16T01:39:46.757Z,8.90
2019-02-16T01:40:45.003Z,9.30
2019-02-16T01:41:45.021Z,8.80
2019-02-16T01:42:45.005Z,9.20
2019-02-16T01:43:44.982Z,8.20
2019-02-16T01:44:44.965Z,8.50
2019-02-16T01:45:44.952Z,8.70
2019-02-16T01:46:44.972Z,9.20
2019-02-16T01:47:44.943Z,9.40
2019-02-16T01:48:44.937Z,8.70
2019-02-16T01:49:46.783Z,8.80
2019-02-16T01:50:46.280Z,8.10
2019-02-16T01:51:44.886Z,9.00
2019-02-16T01:53:56.925Z,7.90
2019-02-16T01:54:56.912Z,8.50
2019-02-16T01:55:56.904Z,8.80
2019-02-16T01:56:56.890Z,9.40
2019-02-16T01:57:57.772Z,9.10
2019-02-16T01:59:58.034Z,9.00
2019-02-16T02:00:56.850Z,9.60
2019-02-16T02:01:56.860Z,9.00
2019-02-16T02:02:56.860Z,9.80
2019-02-16T02:04:33.145Z,9.10
2019-02-16T02:04:57.804Z,9.80
2019-02-16T02:05:58.770Z,9.80
2019-02-16T02:06:56.833Z,9.30
2019-02-16T02:07:56.786Z,10.00
2019-02-16T02:08:56.770Z,9.60
2019-02-16T02:09:58.494Z,9.50
2019-02-16T02:10:56.748Z,8.70
2019-02-16T02:11:56.730Z,9.10
2019-02-16T02:12:56.737Z,9.00
2019-02-16T02:13:56.716Z,8.90
2019-02-16T02:15:11.324Z,8.60
2019-02-16T02:15:56.692Z,8.90
2019-02-16T02:16:56.685Z,8.40
2019-02-16T02:17:56.710Z,8.80
2019-02-16T02:18:56.655Z,8.60
2019-02-16T02:20:10.560Z,9.00
2019-02-16T02:21:19.354Z,9.60
2019-02-16T02:21:56.633Z,10.50
2019-02-16T02:22:56.634Z,8.90
2019-02-16T02:23:56.601Z,9.50
2019-02-16T02:26:06.647Z,8.60
2019-02-16T02:27:06.626Z,8.60
2019-02-16T02:28:06.640Z,9.50
2019-02-16T02:29:06.614Z,8.90
2019-02-16T02:30:06.585Z,8.80
2019-02-16T02:31:06.574Z,8.70
2019-02-16T02:32:06.573Z,8.90
2019-02-16T02:33:06.575Z,9.60
2019-02-16T02:34:06.558Z,8.30
2019-02-16T02:35:11.204Z,8.50
2019-02-16T02:36:06.520Z,9.20
2019-02-16T02:37:06.524Z,9.20
2019-02-16T02:38:06.518Z,8.60
2019-02-16T02:39:06.501Z,8.30
2019-02-16T02:40:06.536Z,9.30
2019-02-16T02:41:06.475Z,8.20
2019-02-16T02:42:06.455Z,8.80
2019-02-16T02:43:11.088Z,8.20
2019-02-16T02:44:06.449Z,8.90
2019-02-16T02:45:06.427Z,9.10
2019-02-16T02:48:17.494Z,8.30
2019-02-16T02:49:17.459Z,8.70
2019-02-16T02:50:21.725Z,8.80
2019-02-16T02:51:22.385Z,8.90
2019-02-16T02:52:49.525Z,8.60
2019-02-16T02:53:17.439Z,8.10
2019-02-16T02:54:17.454Z,8.70
2019-02-16T02:56:01.683Z,8.40
2019-02-16T02:56:18.400Z,8.60
2019-02-16T02:57:17.401Z,8.60
2019-02-16T02:58:17.370Z,8.70
2019-02-16T02:59:17.370Z,9.10
2019-02-16T03:00:54.258Z,9.00
2019-02-16T03:01:18.345Z,8.50
2019-02-16T03:02:17.331Z,9.00
2019-02-16T03:03:17.322Z,8.80
2019-02-16T03:04:17.334Z,8.50
2019-02-16T03:05:19.079Z,8.20
2019-02-16T03:07:19.006Z,8.60
2019-02-16T03:08:17.288Z,8.90
2019-02-16T03:09:17.263Z,9.10
2019-02-16T03:10:19.367Z,9.20
2019-02-16T03:12:18.394Z,8.50
2019-02-16T03:13:17.206Z,8.60
2019-02-16T03:14:33.944Z,8.90
2019-02-16T03:16:28.262Z,9.00
2019-02-16T03:17:28.264Z,9.20
2019-02-16T03:18:28.218Z,9.30
2019-02-16T03:22:49.231Z,8.50
2019-02-16T03:23:49.244Z,9.40
2019-02-16T03:24:49.223Z,8.70
2019-02-16T03:27:52.758Z,9.50
2019-02-16T03:28:20.704Z,9.40
2019-02-16T03:29:20.703Z,9.10
2019-02-16T03:31:30.745Z,8.80
2019-02-16T03:33:31.940Z,9.10
2019-02-16T03:35:58.440Z,9.70
2019-02-16T03:38:19.503Z,7.60
2019-02-16T03:39:19.453Z,8.70
2019-02-16T03:42:39.250Z,8.90
2019-02-16T03:43:38.814Z,9.30
2019-02-16T03:44:38.803Z,9.40
2019-02-16T03:46:49.396Z,9.30
2019-02-16T03:47:49.386Z,9.90
2019-02-16T03:48:49.409Z,9.20
2019-02-16T03:52:28.633Z,8.60
2019-02-16T03:53:28.618Z,9.90
2019-02-16T03:54:28.622Z,9.50
2019-02-16T03:55:28.584Z,9.40
2019-02-16T03:56:28.578Z,10.20
2019-02-16T03:57:30.451Z,9.80
2019-02-16T03:58:28.654Z,9.70
2019-02-16T03:59:28.561Z,9.20
2019-02-16T04:01:37.684Z,8.80
2019-02-16T04:02:37.645Z,9.80
2019-02-16T04:03:37.638Z,9.90
2019-02-16T04:04:37.650Z,9.80
2019-02-16T04:06:06.504Z,10.30
2019-02-16T04:06:38.622Z,10.10
2019-02-16T04:07:37.606Z,9.80
2019-02-16T04:08:41.012Z,10.00
2019-02-16T04:09:39.029Z,9.40
2019-02-16T04:11:47.678Z,9.50
2019-02-16T04:12:47.644Z,9.80
2019-02-16T04:13:47.641Z,10.10
2019-02-16T04:17:29.084Z,9.30
2019-02-16T04:18:29.056Z,9.90
2019-02-16T04:19:29.047Z,10.40
2019-02-16T04:20:33.358Z,10.10
2019-02-16T04:22:39.103Z,8.80
2019-02-16T04:23:39.094Z,9.40
2019-02-16T04:24:39.070Z,10.00
2019-02-16T04:25:39.078Z,9.80
2019-02-16T04:27:56.086Z,8.40
2019-02-16T04:28:56.036Z,9.20
2019-02-16T04:29:56.029Z,9.80
2019-02-16T04:32:06.355Z,10.40
2019-02-16T04:33:06.324Z,10.30
2019-02-16T04:34:06.313Z,10.00
2019-02-16T04:35:07.096Z,9.60
2019-02-16T04:37:16.329Z,9.20
2019-02-16T04:38:16.324Z,10.50
2019-02-16T04:39:16.293Z,10.10
2019-02-16T04:40:18.228Z,10.00
2019-02-16T04:41:17.234Z,10.80
2019-02-16T04:42:16.261Z,9.90
2019-02-16T04:43:16.261Z,9.80
2019-02-16T04:44:17.344Z,9.90
2019-02-16T04:46:38.211Z,9.60
2019-02-16T04:47:38.196Z,10.20
2019-02-16T04:48:38.169Z,10.40
2019-02-16T04:50:48.574Z,9.50
2019-02-16T04:51:48.576Z,9.50
2019-02-16T04:52:48.539Z,10.60
2019-02-16T04:53:48.519Z,10.10
2019-02-16T04:54:49.835Z,10.10
2019-02-16T04:56:02.678Z,10.00
2019-02-16T04:56:48.505Z,9.80
2019-02-16T04:57:48.475Z,10.40
2019-02-16T04:59:07.116Z,10.70
2019-02-16T05:00:17.153Z,9.90
2019-02-16T05:00:48.472Z,10.20
2019-02-16T05:01:48.445Z,10.20
2019-02-16T05:02:49.169Z,10.00
2019-02-16T05:04:58.448Z,10.60
2019-02-16T05:05:59.862Z,10.50
2019-02-16T05:06:58.425Z,10.30
2019-02-16T05:07:58.419Z,9.70
2019-02-16T05:08:58.418Z,10.30
2019-02-16T05:09:59.729Z,10.30
2019-02-16T05:10:58.419Z,10.50
2019-02-16T05:11:58.376Z,10.90
2019-02-16T05:12:58.369Z,10.60
2019-02-16T05:13:58.358Z,10.80
2019-02-16T05:15:34.533Z,9.80
2019-02-16T05:15:59.379Z,10.40
2019-02-16T05:16:58.320Z,10.10
2019-02-16T05:17:58.314Z,10.60
2019-02-16T05:18:58.312Z,10.50
2019-02-16T05:19:58.306Z,10.10
2019-02-16T05:20:58.277Z,10.90
2019-02-16T05:21:59.388Z,10.30
2019-02-16T05:22:59.379Z,9.80
2019-02-16T05:25:09.267Z,8.60
2019-02-16T05:26:09.279Z,9.90
2019-02-16T05:27:09.243Z,10.70
2019-02-16T05:28:10.851Z,10.10
2019-02-16T05:29:11.205Z,10.30
2019-02-16T05:30:09.182Z,10.70
2019-02-16T05:31:09.202Z,10.10
2019-02-16T05:32:09.163Z,10.60
2019-02-16T05:33:27.790Z,10.30
2019-02-16T05:34:11.199Z,10.20
2019-02-16T05:35:09.156Z,10.50
2019-02-16T05:36:09.184Z,10.20
2019-02-16T05:37:12.965Z,10.20
2019-02-16T05:38:09.113Z,10.70
2019-02-16T05:39:10.200Z,10.10
2019-02-16T05:40:09.085Z,10.20
2019-02-16T05:41:09.088Z,10.40
2019-02-16T05:42:09.095Z,10.80
2019-02-16T05:43:09.868Z,10.20
2019-02-16T05:44:09.052Z,10.70
2019-02-16T05:45:09.046Z,9.90
2019-02-16T05:46:09.025Z,9.90
2019-02-16T05:47:09.041Z,10.70
2019-02-16T05:48:09.123Z,10.80
2019-02-16T05:49:08.982Z,10.80
2019-02-16T05:50:10.220Z,10.20
2019-02-16T05:51:10.210Z,11.30
2019-02-16T05:52:08.977Z,10.70
2019-02-16T05:53:11.298Z,10.70
2019-02-16T05:54:10.317Z,11.40
2019-02-16T05:55:10.702Z,10.60
2019-02-16T05:56:10.235Z,10.80
2019-02-16T05:57:09.717Z,11.10
2019-02-16T05:58:08.918Z,11.40
2019-02-16T05:59:09.781Z,10.30
2019-02-16T06:00:09.034Z,10.60
2019-02-16T06:01:09.752Z,10.70
2019-02-16T06:02:08.845Z,10.80
2019-02-16T06:03:09.865Z,10.60
2019-02-16T06:04:09.052Z,11.50
2019-02-16T06:05:09.710Z,11.90
2019-02-16T06:06:38.603Z,10.80
2019-02-16T06:08:30.091Z,9.40
2019-02-16T06:09:30.060Z,10.70
2019-02-16T06:11:40.085Z,9.90
2019-02-16T06:15:21.221Z,10.90
2019-02-16T06:18:33.338Z,10.40
2019-02-16T06:20:17.620Z,10.60
2019-02-16T06:23:03.700Z,10.80
2019-02-16T06:25:19.470Z,10.70
2019-02-16T06:27:31.396Z,9.70
2019-02-16T06:31:20.691Z,11.90
2019-02-16T06:33:30.772Z,9.00
2019-02-16T06:35:41.631Z,10.70
2019-02-16T06:39:04.906Z,12.10
2019-02-16T06:40:04.884Z,12.00
2019-02-16T06:41:43.945Z,11.10
2019-02-16T06:44:16.730Z,12.00
2019-02-16T06:45:37.721Z,12.40
2019-02-16T06:47:26.767Z,11.60
2019-02-16T06:49:36.826Z,11.60
2019-02-16T06:50:37.349Z,11.90
2019-02-16T06:51:36.788Z,12.30
2019-02-16T06:52:39.201Z,13.20
2019-02-16T06:54:57.875Z,10.20
2019-02-16T06:57:29.880Z,11.00
2019-02-16T06:58:32.365Z,11.50
2019-02-16T07:00:40.067Z,10.80
2019-02-16T07:01:47.068Z,11.10
2019-02-16T07:06:25.084Z,11.50
2019-02-16T07:08:47.145Z,11.00
2019-02-16T07:11:49.265Z,9.00
2019-02-16T07:14:01.312Z,10.60
2019-02-16T07:15:02.689Z,10.70
2019-02-16T07:17:12.373Z,10.40
2019-02-16T07:18:12.466Z,10.60
2019-02-16T07:19:15.303Z,10.40
2019-02-16T07:20:12.421Z,10.80
2019-02-16T07:21:12.349Z,10.80
2019-02-16T07:22:12.317Z,11.00
2019-02-16T07:23:12.297Z,10.40
2019-02-16T07:24:12.336Z,10.30
2019-02-16T07:25:12.356Z,11.10
2019-02-16T07:26:13.239Z,10.40
2019-02-16T07:27:14.335Z,10.60
2019-02-16T07:28:12.259Z,10.70
2019-02-16T07:29:12.279Z,9.60
2019-02-16T07:30:12.343Z,10.30
2019-02-16T07:31:12.402Z,10.80
2019-02-16T07:32:12.317Z,10.40
2019-02-16T07:33:12.313Z,10.10
2019-02-16T07:34:12.243Z,10.40
2019-02-16T07:35:12.207Z,10.80
2019-02-16T07:36:12.181Z,10.50
2019-02-16T07:37:12.155Z,10.60
2019-02-16T07:38:12.233Z,10.40
2019-02-16T07:39:12.286Z,10.60
2019-02-16T07:40:12.159Z,10.70
2019-02-16T07:41:12.130Z,10.10
2019-02-16T07:42:12.175Z,9.70
2019-02-16T07:43:12.181Z,10.00
2019-02-16T07:44:12.141Z,10.10
2019-02-16T07:45:12.243Z,9.70
2019-02-16T07:46:12.059Z,9.80
2019-02-16T07:47:12.062Z,9.80
2019-02-16T07:48:12.755Z,9.40
2019-02-16T07:49:27.772Z,9.30
2019-02-16T07:51:07.871Z,9.10
2019-02-16T07:51:14.748Z,8.80
2019-02-16T07:54:53.613Z,7.40
2019-02-16T07:55:34.626Z,9.10
2019-02-16T07:56:46.886Z,9.30
2019-02-16T07:57:38.163Z,9.40
2019-02-16T07:58:33.631Z,8.80
2019-02-16T07:59:32.837Z,9.10
2019-02-16T08:00:32.977Z,8.60
2019-02-16T08:01:32.854Z,8.90
2019-02-16T08:02:33.312Z,9.20
2019-02-16T08:03:34.263Z,9.10
2019-02-16T08:04:33.824Z,8.70
2019-02-16T08:05:34.619Z,9.30
2019-02-16T08:06:33.627Z,9.00
2019-02-16T08:07:32.649Z,8.70
2019-02-16T08:08:33.817Z,8.80
2019-02-16T08:09:34.665Z,8.90
2019-02-16T08:10:32.743Z,8.80
2019-02-16T08:11:34.959Z,8.40
2019-02-16T08:12:33.130Z,8.40
2019-02-16T08:13:32.774Z,9.40
2019-02-16T08:14:33.745Z,8.80
2019-02-16T08:15:33.622Z,8.70
2019-02-16T08:16:33.858Z,8.90
2019-02-16T08:17:33.192Z,8.70
2019-02-16T08:18:33.120Z,8.30
2019-02-16T08:19:32.591Z,8.60
2019-02-16T08:20:33.635Z,8.00
2019-02-16T08:21:36.023Z,8.30
2019-02-16T08:22:32.502Z,7.90
2019-02-16T08:23:40.228Z,8.10
2019-02-16T08:24:33.459Z,8.80
2019-02-16T08:25:32.471Z,8.50
2019-02-16T08:26:32.437Z,8.70
2019-02-16T08:27:32.513Z,8.00
2019-02-16T08:28:32.366Z,8.70
2019-02-16T08:29:32.386Z,8.40
2019-02-16T08:30:32.359Z,8.80
2019-02-16T08:31:32.380Z,8.30
2019-02-16T08:32:32.330Z,8.80
2019-02-16T08:33:32.318Z,8.00
2019-02-16T08:34:32.311Z,8.40
2019-02-16T08:35:32.321Z,7.30
2019-02-16T08:36:32.410Z,7.80
2019-02-16T08:37:32.350Z,7.70
2019-02-16T08:38:32.434Z,8.10
2019-02-16T08:39:32.328Z,8.20
2019-02-16T08:40:32.264Z,7.90
2019-02-16T08:41:32.287Z,8.00
2019-02-16T08:42:32.239Z,7.60
2019-02-16T08:43:32.264Z,7.70
2019-02-16T08:44:32.209Z,7.60
2019-02-16T08:45:32.191Z,7.40
2019-02-16T08:46:32.254Z,8.20
2019-02-16T08:47:32.206Z,7.40
2019-02-16T08:48:32.183Z,7.80
2019-02-16T08:49:32.197Z,7.70
2019-02-16T08:50:32.193Z,8.00
2019-02-16T08:51:32.188Z,7.50
2019-02-16T08:52:32.198Z,7.70
2019-02-16T08:53:32.221Z,8.20
2019-02-16T08:54:33.711Z,7.50
2019-02-16T08:55:39.629Z,7.90
2019-02-16T08:56:35.700Z,7.60
2019-02-16T08:58:08.022Z,7.20
2019-02-16T08:58:32.626Z,6.80
2019-02-16T08:59:32.226Z,7.30
2019-02-16T09:00:46.908Z,6.70
2019-02-16T09:03:02.530Z,6.00
2019-02-16T09:03:57.984Z,7.00
2019-02-16T09:07:41.032Z,6.60
2019-02-16T09:08:14.949Z,6.50
2019-02-16T09:09:14.947Z,6.80
2019-02-16T09:10:15.832Z,7.30
2019-02-16T09:11:15.764Z,6.90
2019-02-16T09:12:14.882Z,6.80
2019-02-16T09:13:14.903Z,6.20
2019-02-16T09:14:14.885Z,6.90
2019-02-16T09:15:14.863Z,6.80
2019-02-16T09:16:14.855Z,6.60
2019-02-16T09:17:15.003Z,7.00
2019-02-16T09:18:14.844Z,6.80
2019-02-16T09:19:17.414Z,6.60
2019-02-16T09:20:17.040Z,6.30
2019-02-16T09:21:17.264Z,6.70
2019-02-16T09:22:15.044Z,6.70
2019-02-16T09:23:21.346Z,5.50
2019-02-16T09:24:15.743Z,6.00
2019-02-16T09:25:14.732Z,6.20
2019-02-16T09:26:30.801Z,5.90
2019-02-16T09:27:14.763Z,5.90
2019-02-16T09:28:14.858Z,5.80
2019-02-16T09:29:27.317Z,5.90
2019-02-16T09:30:14.657Z,5.70
2019-02-16T09:31:14.654Z,6.10
2019-02-16T09:32:14.645Z,6.10
2019-02-16T09:33:14.665Z,5.80
2019-02-16T09:34:14.615Z,6.50
2019-02-16T09:35:14.606Z,5.60
2019-02-16T09:36:14.598Z,5.90
2019-02-16T09:37:14.608Z,5.40
2019-02-16T09:38:14.574Z,5.10
2019-02-16T09:39:14.600Z,5.60
2019-02-16T09:40:14.554Z,5.40
2019-02-16T09:41:14.546Z,5.40
2019-02-16T09:42:14.534Z,5.40
2019-02-16T09:43:14.533Z,5.50
2019-02-16T09:44:14.530Z,5.30
2019-02-16T09:45:14.494Z,5.40
2019-02-16T09:46:14.541Z,5.80
2019-02-16T09:47:14.870Z,5.90
2019-02-16T09:48:14.468Z,5.60
2019-02-16T09:49:55.713Z,5.50
2019-02-16T09:50:15.482Z,5.40
2019-02-16T09:51:14.437Z,5.80
2019-02-16T09:52:14.426Z,5.10
2019-02-16T09:54:24.539Z,5.30
2019-02-16T09:55:24.522Z,5.50
2019-02-16T09:56:24.492Z,4.90
2019-02-16T09:57:24.512Z,5.00
2019-02-16T09:59:47.422Z,5.10
